Aérodrome :
LOGIN :

S'inscrire | Disclaimer

   EN    FR    IT 

 










Légende :    VFR   VFR Marginal   IFR   IFR Intensif   IFR Très Intensif
Visi : 
Plafond : 
>= 8 km
>= 3000ft
5 à 8 km
1000 à 3000 ft
1500m à 5 km
500 à 1000 ft
800 à 1500m
200 à 500 ft
< 800m
< 200 ft
Symboles :   Orages  Brouillard  Fortes neiges  Fortes précipitations  Vent > 20 kt
SIGMETs :   Divers  Orages  Givrage  Turbulence  Onde Orograph.  Cendres Volcan.






- Altitude de l'aérodrome : 885 ft
- Code IATA : BAS


LFSB - Bale-Mulhouse

DERNIER METAR :
  • 201830Z 33004KT CAVOK 13/12 Q1008 NOSIG

METARs EXPIRÉS :
  • 201800Z 25004KT CAVOK 13/12 Q1008 NOSIG
  • 201730Z VRB01KT CAVOK 14/12 Q1008 NOSIG
  • 201700Z 34004KT 300V020 CAVOK 15/12 Q1007 NOSIG
  • 201630Z 35004KT CAVOK 15/12 Q1007 NOSIG
  • 201600Z 03003KT 340V070 CAVOK 18/14 Q1007 NOSIG

TAF TAF LFSB
Valide du 20 à 18h jusqu'au 21 à 18h UTC


201700Z 2018/2118 VRB04KT CAVOK
PROB40
TEMPO 2100/2108 -RA SCT006 BKN025
TEMPO 2112/2118 -RA BKN025
Météo : +33 3 89 90 31 11



MET'MAP, la Météo Aéronautique d'un coup d'oeil ! - Copyright ORBIFLY Décembre 2007 - Disclaimer

ORBIFLY MET'MAP TEAM :

Programmation & Développement : Alexandra Zaïnal
Conception & Développement : Baudouin d'Aumeries
Co-Programmation & Développement : Marc-Olivier Méhu
Soutien technique & logistique : Manuel Goepfert

Contact : metmap@orbifly.com




SOURCES & CREDITS :

   NOAA